Time;durP1;ratioP1;P1;durP2;ratioP2;P2;SDS_P1;SDS_P2;PMS_P1;PMS_P2;Temp;Humidity;BMP_temperature;BMP_pressure;BME280_temperature;BME280_humidity;BME280_pressure;Samples;Min_cycle;Max_cycle;Signal;HPM_P1;HPM_P2
2023/07/06 00:01:03;;;;;;;10.23;5.28;;;;;;;;;;6213111;23;20066;-63
2023/07/06 00:03:31;;;;;;;7.75;5.22;;;;;;;;;;6213105;23;20293;-63
2023/07/06 00:05:57;;;;;;;7.30;5.20;;;;;;;;;;6212393;23;20017;-63
2023/07/06 00:08:23;;;;;;;12.23;5.40;;;;;;;;;;6212960;23;20009;-63
2023/07/06 00:10:50;;;;;;;11.85;5.75;;;;;;;;;;6213013;23;20128;-63
2023/07/06 00:13:16;;;;;;;10.15;5.90;;;;;;;;;;6212394;23;20083;-63
2023/07/06 00:15:42;;;;;;;10.80;6.25;;;;;;;;;;6212855;23;20023;-63
2023/07/06 00:18:09;;;;;;;9.65;5.47;;;;;;;;;;6212717;23;20734;-63
2023/07/06 00:20:38;;;;;;;8.50;5.72;;;;;;;;;;6212275;23;20382;-63
2023/07/06 00:23:05;;;;;;;9.38;5.68;;;;;;;;;;6212890;23;20366;-63
2023/07/06 00:25:33;;;;;;;7.70;5.50;;;;;;;;;;6212699;23;20062;-63
2023/07/06 00:28:02;;;;;;;12.50;5.72;;;;;;;;;;6212564;23;20024;-63
2023/07/06 00:33:17;;;;;;;7.30;5.70;;;;;;;;;;6212785;23;20052;-63
2023/07/06 00:35:44;;;;;;;9.38;5.82;;;;;;;;;;6211456;23;20029;-63
2023/07/06 00:38:14;;;;;;;10.63;6.15;;;;;;;;;;6212521;23;20020;-63
2023/07/06 00:40:41;;;;;;;10.73;6.28;;;;;;;;;;6212741;23;20437;-63
2023/07/06 00:43:15;;;;;;;14.13;6.43;;;;;;;;;;6185453;23;20424;-63
2023/07/06 00:45:42;;;;;;;13.18;6.30;;;;;;;;;;6212580;23;20087;-63
2023/07/06 00:48:31;;;;;;;8.50;5.55;;;;;;;;;;6212915;23;20443;-63
2023/07/06 00:51:00;;;;;;;9.13;5.53;;;;;;;;;;6212357;23;20012;-63
2023/07/06 00:53:28;;;;;;;10.10;5.65;;;;;;;;;;6212806;23;20391;-63
2023/07/06 00:55:57;;;;;;;9.10;5.55;;;;;;;;;;6212430;23;20366;-63
2023/07/06 00:58:27;;;;;;;8.90;5.88;;;;;;;;;;6211458;23;20077;-63
2023/07/06 01:00:55;;;;;;;8.98;6.00;;;;;;;;;;6212556;23;20106;-63
2023/07/06 01:03:22;;;;;;;10.88;6.20;;;;;;;;;;6212547;23;20414;-63
2023/07/06 01:05:49;;;;;;;11.73;5.38;;;;;;;;;;6211908;23;20048;-63
2023/07/06 01:08:16;;;;;;;8.80;5.90;;;;;;;;;;6212473;23;20005;-63
2023/07/06 01:10:43;;;;;;;9.73;5.93;;;;;;;;;;6212003;23;20023;-63
2023/07/06 01:13:10;;;;;;;9.30;5.55;;;;;;;;;;6210211;23;20076;-63
2023/07/06 01:15:49;;;;;;;7.45;5.10;;;;;;;;;;6212715;23;20020;-63
2023/07/06 01:18:39;;;;;;;8.93;5.85;;;;;;;;;;6212368;23;20091;-63
2023/07/06 01:21:11;;;;;;;8.90;5.80;;;;;;;;;;6211689;23;20013;-63
2023/07/06 01:23:55;;;;;;;10.98;5.55;;;;;;;;;;6212377;23;20354;-63
2023/07/06 01:26:42;;;;;;;10.63;5.60;;;;;;;;;;6212433;23;20005;-63
2023/07/06 01:29:27;;;;;;;11.90;5.55;;;;;;;;;;6211319;23;20044;-63
2023/07/06 01:31:55;;;;;;;8.35;5.07;;;;;;;;;;6212484;23;20021;-63
2023/07/06 01:34:43;;;;;;;10.02;5.05;;;;;;;;;;6211300;23;20016;-63
2023/07/06 01:37:14;;;;;;;6.60;4.63;;;;;;;;;;6211882;23;20103;-63
2023/07/06 01:39:40;;;;;;;8.55;5.38;;;;;;;;;;6211970;23;20056;-63
2023/07/06 01:42:13;;;;;;;9.60;5.45;;;;;;;;;;6211662;23;20455;-63
2023/07/06 01:44:46;;;;;;;8.80;4.88;;;;;;;;;;6211853;23;20617;-63
2023/07/06 01:47:13;;;;;;;7.97;5.57;;;;;;;;;;6212027;23;20013;-63
2023/07/06 01:49:39;;;;;;;10.40;5.35;;;;;;;;;;6211355;23;20604;-63
2023/07/06 01:52:06;;;;;;;8.35;5.20;;;;;;;;;;6211655;23;20013;-63
2023/07/06 01:55:08;;;;;;;9.95;5.03;;;;;;;;;;6211831;23;20087;-63
2023/07/06 01:57:37;;;;;;;9.67;5.50;;;;;;;;;;6190994;23;20017;-63
2023/07/06 02:00:09;;;;;;;8.00;4.93;;;;;;;;;;6211987;23;20013;-63
2023/07/06 02:02:37;;;;;;;8.25;5.38;;;;;;;;;;6185569;23;20067;-63
2023/07/06 02:05:03;;;;;;;8.57;4.70;;;;;;;;;;6211235;23;20070;-63
2023/07/06 02:07:31;;;;;;;7.65;5.10;;;;;;;;;;6212071;23;20044;-63
2023/07/06 02:09:58;;;;;;;8.63;5.00;;;;;;;;;;6212024;23;20016;-63
2023/07/06 02:12:24;;;;;;;10.50;5.07;;;;;;;;;;6211755;23;20087;-63
2023/07/06 02:14:51;;;;;;;8.40;5.47;;;;;;;;;;6211879;23;20778;-63
2023/07/06 02:17:17;;;;;;;6.97;4.60;;;;;;;;;;6211882;23;20009;-63
2023/07/06 02:19:43;;;;;;;8.75;5.75;;;;;;;;;;6211360;23;20013;-63
2023/07/06 02:22:10;;;;;;;8.63;5.43;;;;;;;;;;6212022;23;20009;-63
2023/07/06 02:24:38;;;;;;;7.65;5.90;;;;;;;;;;6211894;23;20015;-63
2023/07/06 02:27:05;;;;;;;7.55;5.30;;;;;;;;;;6211695;23;20051;-63
2023/07/06 02:29:33;;;;;;;10.95;5.32;;;;;;;;;;6212097;23;20009;-63
2023/07/06 02:31:59;;;;;;;10.93;5.47;;;;;;;;;;6185234;23;20043;-63
2023/07/06 02:34:25;;;;;;;10.73;6.20;;;;;;;;;;6210939;23;20546;-63
2023/07/06 02:36:53;;;;;;;9.60;5.35;;;;;;;;;;6211659;23;20062;-63
2023/07/06 02:39:20;;;;;;;8.88;5.70;;;;;;;;;;6211556;23;20160;-63
2023/07/06 02:41:47;;;;;;;8.25;5.95;;;;;;;;;;6211206;23;20489;-63
2023/07/06 02:44:13;;;;;;;8.38;5.53;;;;;;;;;;6211744;23;20012;-63
2023/07/06 02:46:39;;;;;;;9.10;6.07;;;;;;;;;;6211536;23;20008;-63
2023/07/06 02:49:05;;;;;;;8.45;5.57;;;;;;;;;;6184578;23;20089;-63
2023/07/06 02:51:35;;;;;;;13.35;6.00;;;;;;;;;;6211728;23;20016;-63
2023/07/06 02:54:01;;;;;;;10.35;6.20;;;;;;;;;;6211704;23;20023;-63
2023/07/06 02:56:27;;;;;;;11.25;6.45;;;;;;;;;;6211270;23;20021;-63
2023/07/06 02:58:53;;;;;;;9.18;6.25;;;;;;;;;;6212250;23;20066;-63
2023/07/06 03:01:20;;;;;;;10.82;6.70;;;;;;;;;;6213669;23;20020;-63
2023/07/06 03:03:46;;;;;;;11.52;6.93;;;;;;;;;;6213077;23;20020;-63
2023/07/06 03:06:12;;;;;;;12.15;6.47;;;;;;;;;;6213500;23;20139;-63
2023/07/06 03:08:38;;;;;;;9.30;6.20;;;;;;;;;;6213551;23;20309;-63
2023/07/06 03:11:05;;;;;;;10.18;6.65;;;;;;;;;;6213111;23;20016;-63
2023/07/06 03:13:31;;;;;;;10.38;6.45;;;;;;;;;;6213667;23;20013;-63
2023/07/06 03:15:58;;;;;;;9.20;7.05;;;;;;;;;;6213518;23;20008;-63
2023/07/06 03:18:25;;;;;;;11.75;6.43;;;;;;;;;;6212778;23;20016;-63
2023/07/06 03:20:52;;;;;;;9.93;6.88;;;;;;;;;;6213389;23;20021;-63
2023/07/06 03:23:18;;;;;;;12.45;7.10;;;;;;;;;;6213118;23;20138;-63
2023/07/06 03:25:45;;;;;;;10.23;7.10;;;;;;;;;;6212700;23;20019;-63
2023/07/06 03:28:11;;;;;;;12.02;6.78;;;;;;;;;;6213580;23;20655;-63
2023/07/06 03:30:37;;;;;;;12.60;7.55;;;;;;;;;;6213390;23;20458;-63
2023/07/06 03:33:03;;;;;;;11.70;7.47;;;;;;;;;;6212561;23;20370;-63
2023/07/06 03:35:29;;;;;;;13.32;7.22;;;;;;;;;;6212229;23;20600;-63
2023/07/06 03:37:58;;;;;;;13.45;7.15;;;;;;;;;;6213249;23;20441;-63
2023/07/06 03:40:26;;;;;;;13.60;7.82;;;;;;;;;;6185914;23;20016;-63
2023/07/06 03:42:55;;;;;;;11.80;7.90;;;;;;;;;;6212882;23;20039;-63
2023/07/06 03:45:21;;;;;;;12.73;7.07;;;;;;;;;;6213160;23;20016;-63
2023/07/06 03:47:49;;;;;;;15.15;7.57;;;;;;;;;;6212439;23;20123;-63
2023/07/06 03:50:16;;;;;;;15.00;7.50;;;;;;;;;;6213422;23;20017;-63
2023/07/06 03:52:42;;;;;;;13.05;7.80;;;;;;;;;;6213195;23;20366;-63
2023/07/06 03:55:14;;;;;;;11.23;6.95;;;;;;;;;;6212449;23;20382;-63
2023/07/06 03:57:40;;;;;;;14.30;7.95;;;;;;;;;;6213027;23;20100;-63
2023/07/06 04:00:24;;;;;;;12.40;7.38;;;;;;;;;;6213248;23;20024;-64
2023/07/06 04:02:51;;;;;;;14.38;7.28;;;;;;;;;;6212264;23;20024;-64
2023/07/06 04:05:19;;;;;;;11.48;7.60;;;;;;;;;;6212889;23;20486;-64
2023/07/06 04:07:45;;;;;;;11.60;7.03;;;;;;;;;;6186725;23;20331;-64
2023/07/06 04:10:12;;;;;;;12.38;7.68;;;;;;;;;;6212230;23;20009;-64
2023/07/06 04:12:38;;;;;;;13.10;8.70;;;;;;;;;;6213134;23;20398;-64
2023/07/06 04:15:08;;;;;;;13.90;7.90;;;;;;;;;;6213021;23;20093;-64
2023/07/06 04:17:36;;;;;;;15.85;8.27;;;;;;;;;;6212659;23;20024;-64
2023/07/06 04:20:10;;;;;;;16.95;7.63;;;;;;;;;;6213012;23;20012;-64
2023/07/06 04:22:36;;;;;;;15.70;7.97;;;;;;;;;;6213268;23;20339;-64
2023/07/06 04:25:04;;;;;;;13.13;7.97;;;;;;;;;;6212667;23;20053;-64
2023/07/06 04:27:30;;;;;;;13.45;7.22;;;;;;;;;;6213262;23;20016;-64
2023/07/06 04:29:56;;;;;;;10.85;7.80;;;;;;;;;;6213302;23;20019;-63
2023/07/06 04:32:23;;;;;;;15.23;7.07;;;;;;;;;;6212500;23;20017;-64
2023/07/06 04:34:51;;;;;;;12.80;7.30;;;;;;;;;;6198290;23;20194;-63
2023/07/06 04:37:17;;;;;;;15.68;7.43;;;;;;;;;;6151481;23;20421;-63
2023/07/06 04:39:43;;;;;;;11.32;8.13;;;;;;;;;;6152593;23;20017;-63
2023/07/06 04:42:09;;;;;;;12.13;8.10;;;;;;;;;;6153300;23;20121;-63
2023/07/06 04:44:35;;;;;;;14.18;8.43;;;;;;;;;;6153226;23;20013;-63
2023/07/06 04:47:01;;;;;;;17.63;7.75;;;;;;;;;;6152498;23;20009;-63
2023/07/06 04:49:28;;;;;;;14.43;7.70;;;;;;;;;;6153333;23;20020;-63
2023/07/06 04:51:54;;;;;;;16.00;7.75;;;;;;;;;;6153091;23;20367;-63
2023/07/06 04:54:20;;;;;;;11.20;7.28;;;;;;;;;;6152511;23;20017;-63
2023/07/06 04:56:46;;;;;;;11.90;7.20;;;;;;;;;;6153174;23;20017;-63
2023/07/06 04:59:12;;;;;;;15.60;8.00;;;;;;;;;;6152967;23;20013;-63
2023/07/06 05:01:39;;;;;;;17.65;7.47;;;;;;;;;;6152034;23;20021;-63
2023/07/06 05:04:05;;;;;;;14.15;7.90;;;;;;;;;;6153021;23;20013;-63
2023/07/06 05:06:31;;;;;;;23.33;8.60;;;;;;;;;;6153127;23;20076;-63
2023/07/06 05:08:57;;;;;;;13.05;7.60;;;;;;;;;;6147848;23;20017;-64
2023/07/06 05:11:25;;;;;;;15.32;7.20;;;;;;;;;;6151501;23;20024;-64
2023/07/06 05:13:51;;;;;;;15.38;7.38;;;;;;;;;;6152577;23;20045;-64
2023/07/06 05:16:17;;;;;;;16.55;7.93;;;;;;;;;;6152315;23;20440;-64
2023/07/06 05:18:43;;;;;;;15.65;7.90;;;;;;;;;;6152982;23;20017;-64
2023/07/06 05:21:10;;;;;;;18.15;8.18;;;;;;;;;;6152319;23;20312;-64
2023/07/06 05:23:36;;;;;;;15.57;7.85;;;;;;;;;;6152443;23;20009;-64
2023/07/06 05:26:03;;;;;;;14.73;8.23;;;;;;;;;;6152030;23;20048;-64
2023/07/06 05:28:29;;;;;;;17.75;7.88;;;;;;;;;;6150784;23;20077;-64
2023/07/06 05:30:56;;;;;;;20.33;8.50;;;;;;;;;;6152939;23;20056;-64
2023/07/06 05:33:22;;;;;;;16.02;8.68;;;;;;;;;;6152216;23;20080;-64
2023/07/06 05:35:48;;;;;;;17.38;9.25;;;;;;;;;;6191929;23;20027;-64
2023/07/06 05:38:14;;;;;;;19.17;8.43;;;;;;;;;;6211909;23;20023;-64
2023/07/06 05:40:41;;;;;;;13.23;7.85;;;;;;;;;;6209547;23;20059;-64
2023/07/06 05:43:07;;;;;;;17.50;8.43;;;;;;;;;;6212131;23;20082;-64
2023/07/06 05:45:33;;;;;;;19.63;7.65;;;;;;;;;;6212063;23;20691;-64
2023/07/06 05:47:59;;;;;;;18.08;8.30;;;;;;;;;;6211442;23;20024;-64
2023/07/06 05:50:25;;;;;;;17.90;8.88;;;;;;;;;;6212004;23;20012;-64
2023/07/06 05:52:52;;;;;;;14.10;7.60;;;;;;;;;;6211836;23;20016;-64
2023/07/06 05:55:18;;;;;;;16.75;8.32;;;;;;;;;;6211669;23;20051;-64
2023/07/06 05:57:45;;;;;;;16.02;8.18;;;;;;;;;;6212006;23;20021;-65
2023/07/06 06:00:11;;;;;;;20.35;8.75;;;;;;;;;;6211954;23;20070;-65
2023/07/06 06:02:38;;;;;;;20.33;7.95;;;;;;;;;;6211683;23;20020;-64
2023/07/06 06:05:05;;;;;;;18.58;8.23;;;;;;;;;;6211403;23;20094;-64
2023/07/06 06:07:33;;;;;;;16.52;7.47;;;;;;;;;;6211779;23;20016;-65
2023/07/06 06:09:59;;;;;;;16.98;8.40;;;;;;;;;;6210682;23;20047;-64
2023/07/06 06:12:27;;;;;;;19.00;8.40;;;;;;;;;;6211912;23;20008;-65
2023/07/06 06:14:53;;;;;;;15.90;7.63;;;;;;;;;;6211958;23;20491;-65
2023/07/06 06:17:20;;;;;;;20.48;7.65;;;;;;;;;;6210924;23;20765;-65
2023/07/06 06:19:46;;;;;;;20.23;8.30;;;;;;;;;;6211760;23;20013;-64
2023/07/06 06:22:14;;;;;;;15.38;7.60;;;;;;;;;;6211821;23;20136;-65
2023/07/06 06:24:40;;;;;;;20.77;9.10;;;;;;;;;;6210960;23;20459;-65
2023/07/06 06:27:06;;;;;;;17.50;7.93;;;;;;;;;;6212077;23;20044;-64
2023/07/06 06:29:34;;;;;;;16.58;7.90;;;;;;;;;;6211333;23;20036;-62
2023/07/06 06:32:03;;;;;;;17.38;8.23;;;;;;;;;;6205752;23;20021;-64
2023/07/06 06:34:29;;;;;;;13.55;7.57;;;;;;;;;;6202768;23;20020;-63
2023/07/06 06:36:55;;;;;;;19.70;8.35;;;;;;;;;;6212253;23;20027;-64
2023/07/06 06:39:22;;;;;;;15.55;7.82;;;;;;;;;;6212665;23;20025;-63
2023/07/06 06:41:48;;;;;;;20.73;9.82;;;;;;;;;;6212576;23;20013;-63
2023/07/06 06:44:14;;;;;;;18.92;8.68;;;;;;;;;;6210165;23;20316;-62
2023/07/06 06:46:40;;;;;;;20.00;8.90;;;;;;;;;;6212737;23;20454;-63
2023/07/06 06:49:07;;;;;;;19.60;9.15;;;;;;;;;;6212865;23;20099;-63
2023/07/06 06:51:33;;;;;;;16.45;8.43;;;;;;;;;;6210219;23;20013;-63
2023/07/06 06:53:59;;;;;;;19.27;8.60;;;;;;;;;;6211742;23;20032;-63
2023/07/06 06:56:25;;;;;;;22.98;8.93;;;;;;;;;;6211083;23;20020;-63
2023/07/06 06:58:52;;;;;;;22.17;8.98;;;;;;;;;;6206136;23;20028;-63
2023/07/06 07:01:18;;;;;;;18.20;8.57;;;;;;;;;;6209475;23;20316;-65
2023/07/06 07:03:45;;;;;;;17.15;8.90;;;;;;;;;;6211862;23;20042;-64
2023/07/06 07:06:12;;;;;;;17.27;9.18;;;;;;;;;;6212131;23;20087;-64
2023/07/06 07:08:39;;;;;;;19.77;9.63;;;;;;;;;;6209317;23;20017;-64
2023/07/06 07:11:06;;;;;;;20.45;9.93;;;;;;;;;;6213187;23;20012;-64
2023/07/06 07:13:35;;;;;;;16.15;9.48;;;;;;;;;;6211742;23;20020;-64
2023/07/06 07:16:02;;;;;;;19.25;9.25;;;;;;;;;;6211297;23;20051;-64
2023/07/06 07:18:28;;;;;;;24.20;9.38;;;;;;;;;;6212468;23;20017;-65
2023/07/06 07:20:54;;;;;;;17.95;9.38;;;;;;;;;;6212515;23;20020;-64
2023/07/06 07:23:25;;;;;;;21.52;8.68;;;;;;;;;;6212415;23;20017;-64
2023/07/06 07:25:51;;;;;;;18.55;8.15;;;;;;;;;;6212030;23;20070;-63
2023/07/06 07:28:18;;;;;;;17.65;8.13;;;;;;;;;;6212133;23;20020;-64
2023/07/06 07:30:46;;;;;;;20.67;8.45;;;;;;;;;;6211766;23;20020;-63
2023/07/06 07:33:12;;;;;;;16.42;8.07;;;;;;;;;;6212928;23;20020;-63
2023/07/06 07:35:41;;;;;;;18.98;9.07;;;;;;;;;;6211799;23;20029;-63
2023/07/06 07:38:07;;;;;;;17.48;8.45;;;;;;;;;;6210644;23;20506;-64
2023/07/06 07:40:34;;;;;;;19.50;8.98;;;;;;;;;;6210538;23;20012;-63
2023/07/06 07:43:00;;;;;;;20.05;8.98;;;;;;;;;;6212431;23;20020;-64
2023/07/06 07:45:26;;;;;;;17.15;8.18;;;;;;;;;;6210779;23;20016;-63
2023/07/06 07:47:52;;;;;;;19.75;9.27;;;;;;;;;;6212872;23;20015;-63
2023/07/06 07:50:18;;;;;;;19.45;8.77;;;;;;;;;;6212436;23;20013;-63
2023/07/06 07:52:44;;;;;;;16.90;8.70;;;;;;;;;;6212523;23;20447;-63
2023/07/06 07:55:10;;;;;;;14.18;7.85;;;;;;;;;;6212302;23;20155;-64
2023/07/06 07:57:37;;;;;;;17.90;8.40;;;;;;;;;;6212234;23;20023;-62
2023/07/06 08:00:06;;;;;;;16.75;7.90;;;;;;;;;;6212799;23;20367;-63
2023/07/06 08:02:32;;;;;;;17.42;8.07;;;;;;;;;;6212617;23;20009;-62
2023/07/06 08:05:03;;;;;;;18.58;7.00;;;;;;;;;;6211600;23;20663;-62
2023/07/06 08:07:31;;;;;;;15.13;6.90;;;;;;;;;;6212827;23;20549;-63
2023/07/06 08:09:57;;;;;;;13.95;6.50;;;;;;;;;;6212613;23;20012;-63
2023/07/06 08:12:24;;;;;;;14.88;7.80;;;;;;;;;;6212069;23;20101;-64
2023/07/06 08:14:50;;;;;;;14.50;5.85;;;;;;;;;;6212104;23;20017;-62
2023/07/06 08:17:16;;;;;;;10.20;5.40;;;;;;;;;;6212226;23;20009;-63
2023/07/06 08:19:45;;;;;;;9.10;4.60;;;;;;;;;;6211794;23;20021;-63
2023/07/06 08:22:11;;;;;;;12.50;4.97;;;;;;;;;;6211933;23;20016;-63
2023/07/06 08:24:38;;;;;;;16.23;5.40;;;;;;;;;;6211724;23;20075;-64
2023/07/06 08:27:04;;;;;;;11.65;5.35;;;;;;;;;;6211915;23;20040;-63
2023/07/06 08:29:31;;;;;;;11.15;5.53;;;;;;;;;;6207944;23;20048;-64
2023/07/06 08:31:59;;;;;;;12.73;5.25;;;;;;;;;;6212357;23;20023;-64
2023/07/06 08:34:26;;;;;;;10.32;4.82;;;;;;;;;;6211324;23;20100;-64
2023/07/06 08:36:52;;;;;;;8.40;4.47;;;;;;;;;;6212144;23;20091;-64
2023/07/06 08:39:18;;;;;;;8.77;3.72;;;;;;;;;;6212753;23;20023;-64
2023/07/06 08:41:47;;;;;;;9.45;4.70;;;;;;;;;;6211726;23;20103;-65
2023/07/06 08:44:14;;;;;;;7.43;3.97;;;;;;;;;;6211498;23;20087;-64
2023/07/06 08:46:48;;;;;;;9.50;3.15;;;;;;;;;;6211731;23;20012;-64
2023/07/06 08:49:24;;;;;;;5.70;3.95;;;;;;;;;;6211321;23;20019;-65
2023/07/06 08:51:52;;;;;;;9.25;3.38;;;;;;;;;;6212665;23;20078;-66
2023/07/06 08:54:21;;;;;;;6.88;3.10;;;;;;;;;;6209326;23;20017;-65
2023/07/06 08:56:49;;;;;;;4.80;2.70;;;;;;;;;;6183896;23;20020;-64
2023/07/06 08:59:32;;;;;;;9.65;3.15;;;;;;;;;;6212078;23;20059;-64
2023/07/06 09:01:58;;;;;;;6.10;2.50;;;;;;;;;;6211437;23;20083;-65
2023/07/06 09:04:24;;;;;;;10.18;2.72;;;;;;;;;;6211284;23;20012;-63
2023/07/06 09:06:55;;;;;;;8.82;2.70;;;;;;;;;;6211700;23;20055;-63
2023/07/06 09:09:21;;;;;;;6.75;2.25;;;;;;;;;;6212165;23;20012;-64
2023/07/06 09:11:50;;;;;;;3.05;2.00;;;;;;;;;;6211616;23;20065;-64
2023/07/06 09:14:19;;;;;;;9.50;2.22;;;;;;;;;;6211763;23;20016;-64
2023/07/06 09:16:55;;;;;;;8.43;2.60;;;;;;;;;;6211669;23;20335;-64
2023/07/06 09:19:21;;;;;;;4.70;2.47;;;;;;;;;;6206019;23;20021;-64
2023/07/06 09:21:47;;;;;;;5.40;2.47;;;;;;;;;;6212102;23;20070;-63
2023/07/06 09:24:14;;;;;;;6.50;2.15;;;;;;;;;;6211493;23;20020;-63
2023/07/06 09:26:42;;;;;;;8.70;2.30;;;;;;;;;;6208672;23;20018;-63
2023/07/06 09:29:18;;;;;;;7.25;2.47;;;;;;;;;;6197725;23;20078;-64
2023/07/06 09:31:45;;;;;;;9.52;2.60;;;;;;;;;;6212038;23;20024;-64
2023/07/06 09:34:28;;;;;;;4.82;2.30;;;;;;;;;;6211009;23;20095;-64
2023/07/06 09:36:55;;;;;;;3.22;2.08;;;;;;;;;;6151834;23;20077;-62
2023/07/06 09:39:21;;;;;;;5.38;2.00;;;;;;;;;;6151799;23;20025;-62
2023/07/06 09:41:47;;;;;;;4.78;2.00;;;;;;;;;;6151532;23;20052;-63
2023/07/06 09:44:15;;;;;;;3.47;2.00;;;;;;;;;;6151888;23;20010;-65
2023/07/06 09:46:43;;;;;;;6.03;2.20;;;;;;;;;;6151350;23;20489;-64
2023/07/06 09:49:17;;;;;;;5.18;1.83;;;;;;;;;;6148797;23;20020;-65
2023/07/06 09:51:50;;;;;;;5.90;2.10;;;;;;;;;;6151504;23;20080;-64
2023/07/06 09:54:23;;;;;;;4.15;1.48;;;;;;;;;;6152243;23;20597;-64
2023/07/06 09:56:49;;;;;;;8.20;2.33;;;;;;;;;;6151674;23;20025;-63
2023/07/06 09:59:16;;;;;;;6.43;2.00;;;;;;;;;;6143883;23;20079;-63
2023/07/06 10:01:51;;;;;;;5.38;2.40;;;;;;;;;;6151039;23;20047;-65
2023/07/06 10:04:32;;;;;;;5.97;1.90;;;;;;;;;;6151137;23;20092;-66
2023/07/06 10:07:11;;;;;;;4.68;1.98;;;;;;;;;;6151607;23;20635;-66
2023/07/06 10:09:43;;;;;;;4.68;2.03;;;;;;;;;;6150487;23;20017;-66
2023/07/06 10:12:21;;;;;;;4.70;1.92;;;;;;;;;;6151543;23;20056;-65
2023/07/06 10:14:49;;;;;;;3.88;1.98;;;;;;;;;;6151702;23;20032;-63
2023/07/06 10:17:25;;;;;;;7.65;2.40;;;;;;;;;;6151214;23;20018;-65
2023/07/06 10:20:10;;;;;;;5.00;2.70;;;;;;;;;;6152084;23;20064;-66
2023/07/06 10:23:04;;;;;;;4.97;2.45;;;;;;;;;;6151312;23;20021;-65
2023/07/06 10:25:33;;;;;;;4.68;2.30;;;;;;;;;;6151262;23;20021;-65
2023/07/06 10:28:14;;;;;;;5.03;2.42;;;;;;;;;;6152393;23;20089;-65
2023/07/06 10:30:45;;;;;;;4.60;2.25;;;;;;;;;;6151375;23;20018;-65
2023/07/06 10:33:23;;;;;;;5.53;2.35;;;;;;;;;;6150845;23;20111;-65
2023/07/06 10:35:50;;;;;;;5.60;1.90;;;;;;;;;;6191729;23;20020;-64
2023/07/06 10:38:17;;;;;;;3.83;1.88;;;;;;;;;;6211949;23;20432;-64
2023/07/06 10:40:43;;;;;;;3.20;1.50;;;;;;;;;;6211357;23;20021;-64
2023/07/06 10:43:09;;;;;;;5.75;1.83;;;;;;;;;;6211911;23;20015;-64
2023/07/06 10:45:41;;;;;;;2.25;1.20;;;;;;;;;;6212160;23;20094;-64
2023/07/06 10:48:10;;;;;;;4.10;1.75;;;;;;;;;;6211959;23;20009;-64
2023/07/06 10:51:00;;;;;;;1.80;1.17;;;;;;;;;;6212151;23;20087;-65
2023/07/06 10:53:43;;;;;;;2.75;1.65;;;;;;;;;;6196490;23;20020;-64
2023/07/06 10:56:12;;;;;;;3.40;1.50;;;;;;;;;;6212056;23;20019;-65
2023/07/06 10:58:57;;;;;;;4.30;1.33;;;;;;;;;;6211628;23;20529;-65
2023/07/06 11:01:40;;;;;;;4.15;1.60;;;;;;;;;;6211480;23;20330;-65
2023/07/06 11:04:25;;;;;;;8.23;1.90;;;;;;;;;;6211855;23;20020;-64
2023/07/06 11:06:52;;;;;;;2.53;1.20;;;;;;;;;;6211898;23;20016;-64
2023/07/06 11:09:18;;;;;;;2.88;1.42;;;;;;;;;;6208099;23;20020;-65
2023/07/06 11:11:51;;;;;;;4.50;1.40;;;;;;;;;;6211400;23;20013;-65
2023/07/06 11:14:20;;;;;;;5.78;1.63;;;;;;;;;;6211847;23;20015;-65
2023/07/06 11:16:57;;;;;;;7.82;2.65;;;;;;;;;;6211443;23;20016;-65
2023/07/06 11:19:26;;;;;;;5.45;1.80;;;;;;;;;;6211038;23;20092;-64
2023/07/06 11:21:55;;;;;;;3.75;1.35;;;;;;;;;;6213032;23;20020;-64
2023/07/06 11:24:24;;;;;;;5.15;1.20;;;;;;;;;;6213198;23;20091;-64
2023/07/06 11:27:03;;;;;;;5.40;1.50;;;;;;;;;;6212113;23;20190;-63
2023/07/06 11:29:29;;;;;;;5.47;1.60;;;;;;;;;;6212423;23;20016;-64
2023/07/06 11:32:25;;;;;;;4.85;1.70;;;;;;;;;;6212976;23;20012;-64
2023/07/06 11:34:54;;;;;;;2.08;1.30;;;;;;;;;;6187087;23;20043;-63
2023/07/06 11:37:38;;;;;;;4.47;1.13;;;;;;;;;;6210583;23;20020;-63
2023/07/06 11:40:11;;;;;;;4.45;1.65;;;;;;;;;;6210539;23;20131;-63
2023/07/06 11:42:48;;;;;;;10.10;4.57;;;;;;;;;;6210278;23;20016;-63
2023/07/06 11:45:27;;;;;;;4.90;1.48;;;;;;;;;;6212876;23;20019;-65
2023/07/06 11:48:02;;;;;;;18.33;9.55;;;;;;;;;;6212543;23;20135;-65
2023/07/06 11:50:34;;;;;;;3.90;1.15;;;;;;;;;;6208602;23;20027;-63
2023/07/06 11:53:09;;;;;;;4.53;1.52;;;;;;;;;;6210458;23;20056;-63
2023/07/06 11:58:43;;;;;;;6.35;1.17;;;;;;;;;;6186472;23;20501;-63
2023/07/06 12:01:20;;;;;;;2.42;1.10;;;;;;;;;;6212811;23;20092;-65
2023/07/06 12:03:47;;;;;;;4.43;1.20;;;;;;;;;;6212813;23;20020;-65
2023/07/06 12:06:17;;;;;;;4.93;1.23;;;;;;;;;;6207354;23;20335;-63
2023/07/06 12:08:44;;;;;;;2.60;0.93;;;;;;;;;;6210300;23;20049;-63
2023/07/06 12:11:19;;;;;;;6.45;1.55;;;;;;;;;;6212697;23;20074;-64
2023/07/06 12:13:47;;;;;;;3.50;1.40;;;;;;;;;;6211987;23;20019;-64
2023/07/06 12:16:13;;;;;;;9.43;6.38;;;;;;;;;;6207843;23;20020;-63
2023/07/06 12:18:46;;;;;;;6.75;1.73;;;;;;;;;;6209820;23;20009;-64
2023/07/06 12:21:32;;;;;;;4.80;1.10;;;;;;;;;;6212996;23;20459;-64
2023/07/06 12:24:03;;;;;;;5.28;1.30;;;;;;;;;;6212518;23;20008;-64
2023/07/06 12:26:29;;;;;;;6.25;1.38;;;;;;;;;;6209674;23;20475;-63
2023/07/06 12:28:58;;;;;;;5.53;1.35;;;;;;;;;;6208602;23;20056;-64
2023/07/06 12:31:26;;;;;;;4.22;1.30;;;;;;;;;;6211634;23;20020;-64
2023/07/06 12:33:55;;;;;;;4.47;1.40;;;;;;;;;;6212188;23;20016;-63
2023/07/06 12:36:21;;;;;;;4.25;1.30;;;;;;;;;;6212139;23;20040;-64
2023/07/06 12:38:47;;;;;;;4.50;1.52;;;;;;;;;;6211488;23;20013;-63
2023/07/06 12:41:14;;;;;;;3.88;1.85;;;;;;;;;;6210870;23;20017;-63
2023/07/06 12:43:40;;;;;;;4.40;1.70;;;;;;;;;;6212487;23;20009;-63
2023/07/06 12:46:08;;;;;;;4.30;1.75;;;;;;;;;;6212138;23;20485;-64
2023/07/06 12:48:34;;;;;;;4.93;2.03;;;;;;;;;;6181678;23;20337;-64
2023/07/06 12:51:09;;;;;;;4.43;1.80;;;;;;;;;;6211569;23;20021;-63
2023/07/06 12:53:35;;;;;;;5.60;1.63;;;;;;;;;;6211525;23;20043;-64
2023/07/06 12:56:13;;;;;;;6.80;1.77;;;;;;;;;;6211953;23;20021;-63
2023/07/06 12:58:44;;;;;;;3.30;1.95;;;;;;;;;;6185196;23;20078;-63
2023/07/06 13:01:18;;;;;;;7.03;2.00;;;;;;;;;;6211087;23;20052;-61
2023/07/06 13:03:58;;;;;;;6.40;1.70;;;;;;;;;;6185203;23;20013;-61
2023/07/06 13:06:25;;;;;;;8.63;2.38;;;;;;;;;;6211619;23;20536;-62
2023/07/06 13:08:59;;;;;;;4.53;1.70;;;;;;;;;;6211656;23;20017;-61
2023/07/06 13:11:26;;;;;;;5.88;1.80;;;;;;;;;;6212156;23;20023;-61
2023/07/06 13:13:56;;;;;;;3.53;1.95;;;;;;;;;;6212169;23;20091;-62
2023/07/06 13:16:22;;;;;;;7.45;2.25;;;;;;;;;;6210704;23;20017;-62
2023/07/06 13:18:51;;;;;;;7.65;1.90;;;;;;;;;;6208516;23;20648;-63
2023/07/06 13:21:18;;;;;;;7.10;2.03;;;;;;;;;;6210340;23;20020;-62
2023/07/06 13:23:47;;;;;;;4.00;1.60;;;;;;;;;;6211328;23;20040;-62
2023/07/06 13:26:13;;;;;;;4.82;1.75;;;;;;;;;;6211682;23;20020;-62
2023/07/06 13:28:39;;;;;;;4.68;1.80;;;;;;;;;;6211426;23;20048;-62
2023/07/06 13:31:07;;;;;;;6.18;1.70;;;;;;;;;;6210853;23;20020;-61
2023/07/06 13:33:39;;;;;;;3.95;1.77;;;;;;;;;;6212389;23;20034;-62
2023/07/06 13:36:08;;;;;;;2.75;1.27;;;;;;;;;;6208796;23;20032;-62
2023/07/06 13:38:35;;;;;;;5.97;1.65;;;;;;;;;;6211801;23;20020;-61
2023/07/06 13:41:03;;;;;;;2.38;1.50;;;;;;;;;;6185099;23;20095;-61
2023/07/06 13:43:29;;;;;;;3.97;1.38;;;;;;;;;;6211827;23;20093;-61
2023/07/06 13:45:56;;;;;;;10.40;1.52;;;;;;;;;;6209342;23;20015;-62
2023/07/06 13:48:23;;;;;;;3.80;1.65;;;;;;;;;;6212340;23;20013;-62
2023/07/06 13:50:49;;;;;;;3.47;0.93;;;;;;;;;;6211657;23;20020;-62
2023/07/06 13:53:16;;;;;;;5.85;2.38;;;;;;;;;;6211265;23;20016;-62
2023/07/06 13:55:48;;;;;;;8.23;1.80;;;;;;;;;;6211841;23;20048;-62
2023/07/06 13:58:14;;;;;;;5.18;1.33;;;;;;;;;;6209325;23;20016;-62
2023/07/06 14:00:42;;;;;;;4.80;1.45;;;;;;;;;;6211675;23;20016;-62
2023/07/06 14:03:08;;;;;;;3.72;1.58;;;;;;;;;;6211653;23;20036;-62
2023/07/06 14:05:37;;;;;;;3.42;1.20;;;;;;;;;;6211729;23;20017;-62
2023/07/06 14:08:03;;;;;;;5.60;1.85;;;;;;;;;;6211519;23;20071;-62
2023/07/06 14:10:29;;;;;;;5.47;1.60;;;;;;;;;;6212274;23;20035;-62
2023/07/06 14:12:55;;;;;;;4.93;1.67;;;;;;;;;;6211623;23;20013;-62
2023/07/06 14:15:21;;;;;;;4.25;2.00;;;;;;;;;;6211388;23;20017;-62
2023/07/06 14:17:48;;;;;;;4.30;1.83;;;;;;;;;;6210528;23;20514;-62
2023/07/06 14:20:16;;;;;;;3.10;1.67;;;;;;;;;;6212189;23;20008;-62
2023/07/06 14:22:42;;;;;;;5.45;2.45;;;;;;;;;;6211500;23;20017;-62
2023/07/06 14:25:18;;;;;;;6.38;2.28;;;;;;;;;;6212138;23;20454;-62
2023/07/06 14:27:45;;;;;;;8.30;2.97;;;;;;;;;;6211797;23;20541;-62
2023/07/06 14:30:13;;;;;;;8.63;3.35;;;;;;;;;;6209226;23;20016;-62
2023/07/06 14:32:40;;;;;;;6.82;2.70;;;;;;;;;;6211988;23;20083;-62
2023/07/06 14:35:09;;;;;;;4.90;2.80;;;;;;;;;;6209288;23;20031;-62
2023/07/06 14:37:37;;;;;;;6.25;2.42;;;;;;;;;;6209029;23;20016;-62
2023/07/06 14:40:03;;;;;;;6.78;2.75;;;;;;;;;;6209156;23;20012;-62
2023/07/06 14:42:29;;;;;;;12.13;2.70;;;;;;;;;;6211600;23;20371;-62
2023/07/06 14:44:55;;;;;;;7.90;3.45;;;;;;;;;;6211784;23;20013;-62
2023/07/06 14:47:21;;;;;;;7.65;2.67;;;;;;;;;;6212252;23;20013;-62
2023/07/06 14:49:48;;;;;;;5.78;2.53;;;;;;;;;;6211912;23;20090;-62
2023/07/06 14:52:15;;;;;;;7.20;2.40;;;;;;;;;;6211527;23;20040;-62